Gurgaon, India

7:30 PM IST on September 23, 2014 (GMT +0530)
Indira Gandhi International | Change Station
CLOSE
Current Station
Airport
Location: New Delhi,
Elevation: 764 ft
Nearby Weather Stations

Elev 764 ft 28.57 °N, 77.12 °E | Updated 30 minutes ago

Haze
Haze
90 °F
Feels Like 88 °F
N
6
Wind Variable Wind from WNW

Today
High -- | Low -- °F
--% Chance of Precip.
Yesterday
High -- | Low -- °F
Precip. -- in
6:10 AM 6:17 PM
Waning Crescent, 0% visible
Pressure 29.68 in
Visibility 2.5 miles
Clouds
Heat Index 88 °F
Dew Point 57 °F
Humidity 33%
Rainfall 0.00 in
Snow Depth Not available.
UV Not available.
Pollen Not available.
Air Quality Not available.
Flu Activity Not available.
METAR VIDP 231330Z 29005KT 4000 HZ NSC 32/14 Q1005 NOSIG

More Conditions Fewer Conditions

Pressure 29.68 in
Visibility 2.5 miles
Clouds
Heat Index 88 °F
Dew Point 57 °F
Humidity 33%
Rainfall 0.00 in
Snow Depth Not available.
UV Not available.
Pollen Not available.
Air Quality Not available.
Flu Activity Not available.
METAR VIDP 231330Z 29005KT 4000 HZ NSC 32/14 Q1005 NOSIG

More Conditions Fewer Conditions

10-Day Weather Forecast

Almanac

Astronomy

Sep. 23, 2014 Rise Set
Actual Time 6:10 AM IST 6:17 PM IST
Civil Twilight 5:47 AM IST 6:41 PM IST
Nautical Twilight 5:19 AM IST 7:08 PM IST
Astronomical Twilight 4:52 AM IST 7:36 PM IST
Moon 5:12 AM IST 5:41 PM IST
Length of Visible Light 12h 54m
Length of Day
12h 07m
Tomorrow will be 1m 41s shorter.
Waning Crescent, 0% of the Moon is Illuminated
Today
Waning Crescent
Sep 24
New
Oct 1
First Quarter
Oct 8
Full
Oct 15
Last Quarter

Yesterday's Extremes

Country Highs Country Lows

Community

WunderPhotos

Upload Photos

1,755,690 photos uploaded!

WunderBlogs® & News

Nearby

Snow Depth

Not available.

Earthquake Activity

City Distance Mag. Time & Date
No recent earthquake activity has been reported nearby.
Minimum magnitude displayed is 2.5.

Coastal Water Temperatures

Place Temperature
No Stations Reporting

Nearby Weather Stations